createdAt,value
2019-05-22T00:00:37.719Z,49.13
2019-05-22T00:03:06.169Z,48.17
2019-05-22T00:05:32.938Z,46.07
2019-05-22T00:08:02.087Z,44.43
2019-05-22T00:10:29.856Z,48.27
2019-05-22T00:12:58.137Z,54.50
2019-05-22T00:15:25.015Z,50.77
2019-05-22T00:17:53.563Z,52.07
2019-05-22T00:20:21.789Z,51.00
2019-05-22T00:22:50.175Z,54.73
2019-05-22T00:25:19.476Z,53.03
2019-05-22T00:27:48.527Z,56.63
2019-05-22T00:30:15.959Z,56.67
2019-05-22T00:32:42.940Z,53.67
2019-05-22T00:35:09.918Z,56.00
2019-05-22T00:37:36.692Z,55.73
2019-05-22T00:40:06.696Z,58.47
2019-05-22T00:42:33.280Z,53.20
2019-05-22T00:44:59.726Z,62.57
2019-05-22T00:47:28.306Z,55.20
2019-05-22T00:49:55.480Z,59.57
2019-05-22T00:52:22.065Z,56.60
2019-05-22T00:54:50.811Z,56.90
2019-05-22T00:57:19.202Z,56.20
2019-05-22T00:59:47.438Z,54.73
2019-05-22T01:02:15.823Z,55.57
2019-05-22T01:04:43.187Z,52.47
2019-05-22T01:07:12.067Z,53.43
2019-05-22T01:09:40.925Z,49.80
2019-05-22T01:12:11.273Z,55.40
2019-05-22T01:14:42.983Z,55.17
2019-05-22T01:17:07.658Z,54.87
2019-05-22T01:19:34.317Z,50.47
2019-05-22T01:22:00.946Z,53.97
2019-05-22T01:24:27.811Z,53.27
2019-05-22T01:26:56.526Z,54.17
2019-05-22T01:29:23.381Z,52.87
2019-05-22T01:31:54.958Z,55.80
2019-05-22T01:34:23.507Z,55.27
2019-05-22T01:36:50.987Z,59.63
2019-05-22T01:39:21.207Z,55.30
2019-05-22T01:41:49.657Z,58.10
2019-05-22T01:44:18.218Z,57.83
2019-05-22T01:46:45.298Z,58.70
2019-05-22T01:49:11.657Z,52.40
2019-05-22T01:51:38.099Z,48.50
2019-05-22T01:54:06.587Z,57.30
2019-05-22T01:56:34.873Z,52.00
2019-05-22T01:59:02.052Z,59.20
2019-05-22T02:01:29.839Z,48.53
2019-05-22T02:03:58.311Z,53.47
2019-05-22T02:06:26.659Z,46.47
2019-05-22T02:08:56.331Z,49.37
2019-05-22T02:11:25.883Z,51.53
2019-05-22T02:13:54.378Z,47.13
2019-05-22T02:16:20.931Z,46.60
2019-05-22T02:18:48.895Z,51.90
2019-05-22T02:21:16.956Z,52.60
2019-05-22T02:23:45.256Z,51.03
2019-05-22T02:26:12.715Z,54.13
2019-05-22T02:28:39.793Z,52.57
2019-05-22T02:31:06.536Z,51.77
2019-05-22T02:33:35.837Z,50.00
2019-05-22T02:36:03.629Z,53.23
2019-05-22T02:38:31.005Z,53.80
2019-05-22T02:40:57.999Z,58.47
2019-05-22T02:43:25.010Z,57.30
2019-05-22T02:45:51.574Z,58.17
2019-05-22T02:48:18.002Z,67.97
2019-05-22T02:50:46.048Z,62.07
2019-05-22T02:53:14.195Z,68.07
2019-05-22T02:55:41.080Z,59.90
2019-05-22T02:58:09.521Z,62.53
2019-05-22T03:00:39.001Z,70.07
2019-05-22T03:03:06.587Z,62.87
2019-05-22T03:05:32.971Z,65.87
2019-05-22T03:07:59.540Z,65.07
2019-05-22T03:10:27.948Z,65.63
2019-05-22T03:12:54.498Z,65.90
2019-05-22T03:15:23.205Z,61.43
2019-05-22T03:17:52.667Z,60.53
2019-05-22T03:20:20.943Z,69.50
2019-05-22T03:22:49.794Z,72.67
2019-05-22T03:25:17.363Z,65.33
2019-05-22T03:27:46.114Z,62.60
2019-05-22T03:30:14.478Z,61.23
2019-05-22T03:32:43.902Z,65.30
2019-05-22T03:35:09.821Z,61.80
2019-05-22T03:37:38.976Z,59.77
2019-05-22T03:40:06.755Z,57.20
2019-05-22T03:42:35.244Z,56.90
2019-05-22T03:45:03.321Z,59.10
2019-05-22T03:47:30.199Z,59.23
2019-05-22T03:49:57.248Z,59.70
2019-05-22T03:52:25.016Z,59.63
2019-05-22T03:54:51.674Z,51.47
2019-05-22T03:57:18.660Z,55.07
2019-05-22T03:59:45.001Z,58.53
2019-05-22T04:02:11.785Z,58.43
2019-05-22T04:04:39.240Z,53.30
2019-05-22T04:07:07.906Z,56.23
2019-05-22T04:09:37.352Z,54.17
2019-05-22T04:12:07.447Z,50.27
2019-05-22T04:14:34.897Z,51.00
2019-05-22T04:17:02.067Z,45.77
2019-05-22T04:19:46.838Z,46.43
2019-05-22T04:21:57.611Z,55.27
2019-05-22T04:24:24.172Z,50.20
2019-05-22T04:26:50.937Z,55.53
2019-05-22T04:29:17.907Z,55.00
2019-05-22T04:31:45.878Z,52.33
2019-05-22T04:34:12.808Z,57.30
2019-05-22T04:36:39.503Z,50.03
2019-05-22T04:39:11.212Z,48.27
2019-05-22T04:41:37.715Z,58.17
2019-05-22T04:44:04.869Z,51.17
2019-05-22T04:46:31.847Z,50.93
2019-05-22T04:48:58.502Z,53.83
2019-05-22T04:51:25.840Z,51.67
2019-05-22T04:53:53.341Z,47.63
2019-05-22T04:56:21.610Z,51.77
2019-05-22T04:58:48.088Z,46.90
2019-05-22T05:01:14.553Z,49.97
2019-05-22T05:03:41.115Z,54.87
2019-05-22T05:06:08.681Z,51.63
2019-05-22T05:08:36.544Z,49.67
2019-05-22T05:11:04.123Z,48.63
2019-05-22T05:13:30.693Z,48.10
2019-05-22T05:15:57.385Z,42.40
2019-05-22T05:18:24.063Z,48.23
2019-05-22T05:20:50.613Z,46.77
2019-05-22T05:23:17.080Z,41.63
2019-05-22T05:25:44.026Z,47.87
2019-05-22T05:28:11.304Z,46.73
2019-05-22T05:30:37.972Z,46.93
2019-05-22T05:33:04.787Z,42.50
2019-05-22T05:35:31.932Z,42.97
2019-05-22T05:37:59.434Z,45.97
2019-05-22T05:40:25.895Z,40.53
2019-05-22T05:42:52.804Z,43.17
2019-05-22T05:45:19.387Z,44.60
2019-05-22T05:47:45.743Z,40.90
2019-05-22T05:50:14.287Z,41.00
2019-05-22T05:52:41.259Z,41.97
2019-05-22T05:55:08.335Z,44.37
2019-05-22T05:57:37.943Z,42.07
2019-05-22T06:00:07.830Z,46.20
2019-05-22T06:02:34.844Z,37.60
2019-05-22T06:05:01.924Z,38.63
2019-05-22T06:07:28.471Z,42.73
2019-05-22T06:09:57.043Z,38.83
2019-05-22T06:12:23.395Z,37.87
2019-05-22T06:14:51.070Z,37.70
2019-05-22T06:17:19.416Z,37.57
2019-05-22T06:19:48.103Z,35.40
2019-05-22T06:22:15.162Z,31.67
2019-05-22T06:24:43.539Z,33.93
2019-05-22T06:27:12.104Z,34.77
2019-05-22T06:29:41.518Z,35.87
2019-05-22T06:32:11.473Z,37.97
2019-05-22T06:34:38.657Z,31.70
2019-05-22T06:37:07.708Z,31.23
2019-05-22T06:39:34.268Z,33.20
2019-05-22T06:42:00.636Z,31.33
2019-05-22T06:44:29.631Z,31.55
2019-05-22T06:46:56.994Z,31.15
2019-05-22T06:49:28.154Z,37.50
2019-05-22T06:51:54.652Z,31.50
2019-05-22T06:54:21.101Z,30.40
2019-05-22T06:56:47.472Z,29.27
2019-05-22T06:59:13.916Z,33.37
2019-05-22T07:01:40.911Z,31.25
2019-05-22T07:04:07.472Z,29.72
2019-05-22T07:06:35.158Z,33.63
2019-05-22T07:09:03.215Z,29.20
2019-05-22T07:11:29.805Z,30.45
2019-05-22T07:13:56.492Z,30.23
2019-05-22T07:16:23.255Z,31.20
2019-05-22T07:18:50.714Z,32.28
2019-05-22T07:21:33.149Z,33.60
2019-05-22T07:23:48.254Z,31.25
2019-05-22T07:26:14.945Z,36.23
2019-05-22T07:28:41.394Z,31.70
2019-05-22T07:31:08.563Z,31.87
2019-05-22T07:33:35.318Z,31.00
2019-05-22T07:36:13.618Z,28.30
2019-05-22T07:38:31.748Z,31.07
2019-05-22T07:40:58.490Z,29.75
2019-05-22T07:43:25.236Z,30.30
2019-05-22T07:45:53.400Z,31.97
2019-05-22T07:48:21.650Z,28.50
2019-05-22T07:50:49.366Z,29.35
2019-05-22T07:53:16.204Z,30.60
2019-05-22T07:55:42.955Z,27.10
2019-05-22T07:58:11.742Z,27.30
2019-05-22T08:00:40.629Z,29.42
2019-05-22T08:03:07.754Z,28.87
2019-05-22T08:05:36.616Z,30.75
2019-05-22T08:08:03.286Z,24.98
2019-05-22T08:10:29.867Z,28.90
2019-05-22T08:12:56.243Z,27.45
2019-05-22T08:15:24.860Z,23.07
2019-05-22T08:17:51.524Z,23.50
2019-05-22T08:20:17.967Z,23.73
2019-05-22T08:22:46.239Z,20.95
2019-05-22T08:25:15.021Z,23.57
2019-05-22T08:27:41.752Z,23.77
2019-05-22T08:30:08.815Z,25.05
2019-05-22T08:32:36.995Z,23.30
2019-05-22T08:35:05.856Z,25.17
2019-05-22T08:37:35.575Z,24.30
2019-05-22T08:40:03.477Z,25.80
2019-05-22T08:42:30.195Z,23.20
2019-05-22T08:44:56.744Z,25.47
2019-05-22T08:47:23.835Z,27.55
2019-05-22T08:49:50.387Z,24.67
2019-05-22T08:52:23.589Z,27.40
2019-05-22T08:54:46.041Z,29.47
2019-05-22T08:57:13.112Z,27.40
2019-05-22T08:59:39.864Z,25.10
2019-05-22T09:02:08.207Z,28.70
2019-05-22T09:04:34.575Z,30.87
2019-05-22T09:07:01.028Z,25.60
2019-05-22T09:09:27.507Z,25.70
2019-05-22T09:11:54.179Z,30.13
2019-05-22T09:14:20.646Z,28.10
2019-05-22T09:16:48.909Z,27.27
2019-05-22T09:19:15.598Z,26.75
2019-05-22T09:21:43.239Z,29.95
2019-05-22T09:24:13.463Z,32.63
2019-05-22T09:26:40.312Z,30.07
2019-05-22T09:29:06.794Z,32.07
2019-05-22T09:31:35.155Z,26.43
2019-05-22T09:34:01.723Z,30.72
2019-05-22T09:36:28.917Z,28.47
2019-05-22T09:38:55.507Z,29.53
2019-05-22T09:41:21.911Z,33.90
2019-05-22T09:43:48.260Z,32.10
2019-05-22T09:46:15.111Z,30.17
2019-05-22T09:48:42.219Z,28.93
2019-05-22T09:51:08.969Z,25.70
2019-05-22T09:53:35.596Z,28.02
2019-05-22T09:56:03.062Z,24.87
2019-05-22T09:58:29.879Z,28.30
2019-05-22T10:00:56.643Z,26.95
2019-05-22T10:03:23.311Z,28.73
2019-05-22T10:05:49.806Z,28.15
2019-05-22T10:08:16.648Z,29.97
2019-05-22T10:10:43.500Z,32.15
2019-05-22T10:13:10.159Z,29.70
2019-05-22T10:15:37.715Z,26.60
2019-05-22T10:18:05.284Z,25.40
2019-05-22T10:20:32.055Z,27.00
2019-05-22T10:23:14.127Z,27.98
2019-05-22T10:25:27.283Z,28.12
2019-05-22T10:27:53.645Z,27.80
2019-05-22T10:30:22.020Z,32.10
2019-05-22T10:32:48.572Z,26.12
2019-05-22T10:35:15.744Z,27.17
2019-05-22T10:37:42.393Z,24.87
2019-05-22T10:40:09.260Z,23.55
2019-05-22T10:42:36.126Z,21.68
2019-05-22T10:45:03.712Z,25.75
2019-05-22T10:47:30.143Z,20.68
2019-05-22T10:49:56.509Z,19.73
2019-05-22T10:52:23.364Z,21.60
2019-05-22T10:54:50.330Z,21.95
2019-05-22T10:57:17.485Z,18.37
2019-05-22T10:59:44.023Z,22.22
2019-05-22T11:02:10.704Z,18.90
2019-05-22T11:04:40.383Z,19.35
2019-05-22T11:07:07.145Z,18.27
2019-05-22T11:09:34.111Z,17.25
2019-05-22T11:12:01.475Z,18.00
2019-05-22T11:14:28.331Z,14.30
2019-05-22T11:16:55.310Z,13.70
2019-05-22T11:19:22.383Z,15.43
2019-05-22T11:21:48.845Z,14.85
2019-05-22T11:24:15.437Z,15.50
2019-05-22T11:26:41.788Z,14.00
2019-05-22T11:29:08.440Z,14.83
2019-05-22T11:31:35.716Z,12.47
2019-05-22T11:34:02.864Z,13.18
2019-05-22T11:36:30.534Z,12.35
2019-05-22T11:38:56.880Z,14.28
2019-05-22T11:41:24.014Z,12.05
2019-05-22T11:43:50.995Z,11.00
2019-05-22T11:46:17.880Z,10.72
2019-05-22T11:48:44.336Z,10.55
2019-05-22T11:51:11.412Z,11.65
2019-05-22T11:53:37.866Z,10.10
2019-05-22T11:56:04.335Z,12.85
2019-05-22T11:58:30.914Z,9.85
2019-05-22T12:00:57.380Z,8.55
2019-05-22T12:03:24.448Z,8.55
2019-05-22T12:05:52.035Z,10.58
2019-05-22T12:08:18.787Z,8.95
2019-05-22T12:10:45.296Z,8.48
2019-05-22T12:13:12.276Z,8.25
2019-05-22T12:15:39.941Z,9.43
2019-05-22T12:18:07.008Z,11.22
2019-05-22T12:20:33.987Z,9.50
2019-05-22T12:23:00.341Z,9.10
2019-05-22T12:25:28.092Z,8.63
2019-05-22T12:27:54.577Z,7.97
2019-05-22T12:30:21.335Z,8.45
2019-05-22T12:32:48.265Z,9.98
2019-05-22T12:35:16.555Z,8.95
2019-05-22T12:37:43.732Z,8.48
2019-05-22T12:40:12.487Z,8.50
2019-05-22T12:42:38.955Z,9.08
2019-05-22T12:45:05.914Z,11.38
2019-05-22T12:47:32.692Z,8.78
2019-05-22T12:49:59.052Z,10.82
2019-05-22T12:52:25.629Z,7.90
2019-05-22T12:54:53.059Z,7.20
2019-05-22T12:57:20.269Z,9.40
2019-05-22T12:59:47.036Z,8.98
2019-05-22T13:02:17.303Z,7.03
2019-05-22T13:04:43.958Z,7.80
2019-05-22T13:07:11.189Z,7.87
2019-05-22T13:09:38.052Z,9.05
2019-05-22T13:12:04.821Z,9.48
2019-05-22T13:14:31.263Z,6.92
2019-05-22T13:16:59.031Z,6.15
2019-05-22T13:19:25.896Z,7.95
2019-05-22T13:21:52.411Z,7.17
2019-05-22T13:24:19.648Z,8.28
2019-05-22T13:26:46.736Z,9.20
2019-05-22T13:29:13.433Z,7.78
2019-05-22T13:31:40.676Z,7.92
2019-05-22T13:34:07.673Z,8.60
2019-05-22T13:36:34.739Z,7.17
2019-05-22T13:39:02.030Z,7.28
2019-05-22T13:41:29.064Z,8.13
2019-05-22T13:43:56.252Z,6.78
2019-05-22T13:46:23.303Z,6.97
2019-05-22T13:48:50.008Z,7.42
2019-05-22T13:51:16.887Z,7.25
2019-05-22T13:53:43.839Z,8.73
2019-05-22T13:56:11.412Z,7.92
2019-05-22T13:58:38.393Z,8.35
2019-05-22T14:01:05.447Z,8.80
2019-05-22T14:03:32.240Z,9.45
2019-05-22T14:05:58.991Z,7.28
2019-05-22T14:08:27.416Z,7.12
2019-05-22T14:10:54.442Z,7.67
2019-05-22T14:13:22.628Z,7.92
2019-05-22T14:15:56.044Z,9.33
2019-05-22T14:18:17.567Z,7.45
2019-05-22T14:20:44.044Z,7.00
2019-05-22T14:23:10.517Z,9.40
2019-05-22T14:25:36.968Z,8.58
2019-05-22T14:28:04.053Z,7.37
2019-05-22T14:30:30.688Z,8.50
2019-05-22T14:32:57.849Z,8.70
2019-05-22T14:35:26.240Z,6.83
2019-05-22T14:37:53.247Z,7.87
2019-05-22T14:40:20.103Z,6.40
2019-05-22T14:42:46.573Z,5.72
2019-05-22T14:45:13.556Z,5.35
2019-05-22T14:47:40.199Z,17.42
2019-05-22T14:50:07.192Z,8.05
2019-05-22T14:52:34.044Z,6.80
2019-05-22T14:55:00.833Z,25.80
2019-05-22T14:57:27.525Z,6.45
2019-05-22T14:59:53.985Z,5.47
2019-05-22T15:02:21.594Z,6.37
2019-05-22T15:04:48.965Z,6.15
2019-05-22T15:07:15.403Z,6.90
2019-05-22T15:09:41.886Z,7.08
2019-05-22T15:12:08.331Z,5.37
2019-05-22T15:14:34.906Z,4.72
2019-05-22T15:17:01.460Z,5.28
2019-05-22T15:19:27.866Z,4.75
2019-05-22T15:21:54.233Z,5.95
2019-05-22T15:24:20.900Z,5.35
2019-05-22T15:26:47.355Z,7.30
2019-05-22T15:29:14.028Z,6.80
2019-05-22T15:31:40.409Z,6.62
2019-05-22T15:34:07.175Z,7.15
2019-05-22T15:36:34.145Z,6.87
2019-05-22T15:39:01.323Z,9.03
2019-05-22T15:41:28.220Z,7.22
2019-05-22T15:43:55.196Z,7.53
2019-05-22T15:46:22.785Z,9.20
2019-05-22T15:48:49.969Z,7.35
2019-05-22T15:51:18.676Z,6.03
2019-05-22T15:53:45.218Z,5.97
2019-05-22T15:56:11.696Z,7.25
2019-05-22T15:58:39.443Z,7.50
2019-05-22T16:01:07.539Z,7.33
2019-05-22T16:03:34.399Z,7.25
2019-05-22T16:06:01.393Z,6.17
2019-05-22T16:08:28.048Z,6.17
2019-05-22T16:11:00.002Z,8.70
2019-05-22T16:13:26.389Z,6.95
2019-05-22T16:15:53.980Z,5.33
2019-05-22T16:18:23.804Z,6.17
2019-05-22T16:20:51.391Z,5.90
2019-05-22T16:23:21.265Z,5.62
2019-05-22T16:25:47.764Z,4.92
2019-05-22T16:28:14.427Z,5.70
2019-05-22T16:30:42.015Z,5.65
2019-05-22T16:33:08.558Z,5.12
2019-05-22T16:35:35.238Z,5.25
2019-05-22T16:38:01.896Z,4.78
2019-05-22T16:40:29.160Z,4.35
2019-05-22T16:42:57.515Z,5.53
2019-05-22T16:45:24.471Z,7.28
2019-05-22T16:47:51.851Z,6.08
2019-05-22T16:50:18.591Z,5.35
2019-05-22T16:52:46.888Z,5.87
2019-05-22T16:55:16.421Z,5.35
2019-05-22T16:57:42.888Z,6.28
2019-05-22T17:00:11.148Z,6.75
2019-05-22T17:02:38.124Z,5.78
2019-05-22T17:05:06.808Z,5.95
2019-05-22T17:07:33.843Z,5.47
2019-05-22T17:10:00.850Z,6.08
2019-05-22T17:12:28.273Z,8.75
2019-05-22T17:14:55.211Z,6.95
2019-05-22T17:17:21.974Z,5.42
2019-05-22T17:19:48.831Z,7.00
2019-05-22T17:22:16.169Z,6.87
2019-05-22T17:24:44.101Z,6.55
2019-05-22T17:27:13.276Z,6.00
2019-05-22T17:29:40.236Z,7.33
2019-05-22T17:32:07.542Z,7.00
2019-05-22T17:34:37.508Z,6.33
2019-05-22T17:37:07.127Z,6.72
2019-05-22T17:39:33.987Z,7.12
2019-05-22T17:42:02.818Z,8.73
2019-05-22T17:44:30.307Z,6.22
2019-05-22T17:46:57.380Z,7.05
2019-05-22T17:49:23.940Z,7.67
2019-05-22T17:51:50.616Z,8.83
2019-05-22T17:54:17.681Z,7.87
2019-05-22T17:56:44.937Z,7.50
2019-05-22T17:59:11.525Z,7.05
2019-05-22T18:01:38.174Z,6.55
2019-05-22T18:04:04.659Z,7.30
2019-05-22T18:06:31.106Z,9.18
2019-05-22T18:08:57.673Z,10.45
2019-05-22T18:11:24.271Z,7.50
2019-05-22T18:13:52.647Z,7.37
2019-05-22T18:16:19.257Z,8.33
2019-05-22T18:18:45.807Z,7.83
2019-05-22T18:21:12.561Z,8.35
2019-05-22T18:23:38.938Z,7.28
2019-05-22T18:26:05.398Z,8.58
2019-05-22T18:28:31.860Z,9.98
2019-05-22T18:30:58.311Z,9.20
2019-05-22T18:33:24.889Z,8.15
2019-05-22T18:35:51.378Z,8.80
2019-05-22T18:38:17.856Z,8.93
2019-05-22T18:40:44.413Z,8.40
2019-05-22T18:43:11.266Z,7.70
2019-05-22T18:45:38.124Z,10.93
2019-05-22T18:48:05.028Z,9.43
2019-05-22T18:50:32.171Z,9.15
2019-05-22T18:52:58.664Z,9.48
2019-05-22T18:55:25.140Z,9.37
2019-05-22T18:57:51.603Z,10.18
2019-05-22T19:00:20.957Z,10.20
2019-05-22T19:02:47.621Z,9.63
2019-05-22T19:05:15.946Z,8.58
2019-05-22T19:07:42.671Z,7.35
2019-05-22T19:10:10.542Z,8.23
2019-05-22T19:12:37.187Z,8.73
2019-05-22T19:15:05.200Z,11.37
2019-05-22T19:17:32.356Z,11.23
2019-05-22T19:19:58.928Z,10.27
2019-05-22T19:22:25.786Z,11.87
2019-05-22T19:24:52.368Z,12.10
2019-05-22T19:27:18.818Z,9.10
2019-05-22T19:29:45.300Z,9.47
2019-05-22T19:32:11.887Z,11.20
2019-05-22T19:34:38.263Z,11.37
2019-05-22T19:37:04.631Z,9.93
2019-05-22T19:39:31.120Z,11.87
2019-05-22T19:42:03.515Z,12.33
2019-05-22T19:44:26.035Z,11.00
2019-05-22T19:46:52.519Z,10.83
2019-05-22T19:49:19.513Z,11.83
2019-05-22T19:51:47.159Z,12.67
2019-05-22T19:54:13.811Z,10.70
2019-05-22T19:56:40.777Z,11.17
2019-05-22T19:59:07.929Z,13.63
2019-05-22T20:01:34.797Z,11.70
2019-05-22T20:04:01.348Z,12.57
2019-05-22T20:06:28.419Z,13.17
2019-05-22T20:08:54.867Z,11.90
2019-05-22T20:11:21.232Z,12.50
2019-05-22T20:13:47.606Z,15.17
2019-05-22T20:16:16.361Z,14.00
2019-05-22T20:18:42.841Z,12.93
2019-05-22T20:21:09.324Z,14.00
2019-05-22T20:23:37.127Z,14.77
2019-05-22T20:26:04.280Z,14.77
2019-05-22T20:28:31.097Z,15.30
2019-05-22T20:30:57.809Z,16.07
2019-05-22T20:33:27.011Z,13.07
2019-05-22T20:35:52.907Z,14.47
2019-05-22T20:38:19.277Z,13.63
2019-05-22T20:40:46.145Z,14.67
2019-05-22T20:43:12.746Z,14.60
2019-05-22T20:45:40.233Z,15.27
2019-05-22T20:48:08.990Z,18.20
2019-05-22T20:50:36.656Z,15.80
2019-05-22T20:53:04.108Z,16.77
2019-05-22T20:55:30.556Z,20.57
2019-05-22T20:57:57.007Z,18.77
2019-05-22T21:00:25.586Z,20.23
2019-05-22T21:02:53.925Z,17.13
2019-05-22T21:05:22.275Z,18.53
2019-05-22T21:07:50.549Z,18.93
2019-05-22T21:10:18.977Z,18.63
2019-05-22T21:12:45.700Z,18.63
2019-05-22T21:15:12.161Z,19.73
2019-05-22T21:17:39.055Z,19.80
2019-05-22T21:20:07.703Z,20.77
2019-05-22T21:22:34.166Z,25.40
2019-05-22T21:25:00.652Z,21.30
2019-05-22T21:27:27.545Z,22.63
2019-05-22T21:29:54.598Z,20.70
2019-05-22T21:32:21.596Z,19.30
2019-05-22T21:34:48.551Z,17.77
2019-05-22T21:37:16.221Z,19.17
2019-05-22T21:39:43.486Z,17.10
2019-05-22T21:42:11.178Z,17.03
2019-05-22T21:44:37.931Z,21.57
2019-05-22T21:47:08.740Z,18.50
2019-05-22T21:49:38.813Z,17.73
2019-05-22T21:52:06.693Z,18.67
2019-05-22T21:54:33.336Z,20.37
2019-05-22T21:56:59.904Z,18.43
2019-05-22T21:59:26.351Z,17.23
2019-05-22T22:01:54.848Z,16.80
2019-05-22T22:04:23.596Z,16.10
2019-05-22T22:06:51.951Z,18.00
2019-05-22T22:09:20.239Z,15.30
2019-05-22T22:11:47.537Z,16.83
2019-05-22T22:14:14.322Z,14.33
2019-05-22T22:16:41.171Z,16.17
2019-05-22T22:19:09.540Z,17.03
2019-05-22T22:21:36.792Z,14.43
2019-05-22T22:24:05.290Z,13.03
2019-05-22T22:26:32.219Z,12.43
2019-05-22T22:28:58.708Z,14.17
2019-05-22T22:31:27.057Z,14.63
2019-05-22T22:33:55.344Z,15.20
2019-05-22T22:36:21.890Z,16.40
2019-05-22T22:38:48.858Z,19.50
2019-05-22T22:41:15.915Z,16.90
2019-05-22T22:43:44.304Z,16.57
2019-05-22T22:46:17.594Z,17.13
2019-05-22T22:48:44.473Z,16.87
2019-05-22T22:51:12.303Z,20.00
2019-05-22T22:53:41.015Z,18.23
2019-05-22T22:56:07.672Z,18.60
2019-05-22T22:58:34.865Z,21.83
2019-05-22T23:01:03.412Z,18.47
2019-05-22T23:03:30.803Z,19.83
2019-05-22T23:05:57.759Z,20.60
2019-05-22T23:08:26.942Z,21.00
2019-05-22T23:10:54.090Z,20.53
2019-05-22T23:13:21.055Z,22.13
2019-05-22T23:15:48.208Z,22.50
2019-05-22T23:18:20.625Z,21.17
2019-05-22T23:20:46.904Z,23.10
2019-05-22T23:23:14.468Z,19.87
2019-05-22T23:25:41.037Z,23.23
2019-05-22T23:28:07.788Z,24.40
2019-05-22T23:30:34.378Z,22.93
2019-05-22T23:33:01.816Z,24.30
2019-05-22T23:35:28.691Z,24.90
2019-05-22T23:37:55.977Z,22.50
2019-05-22T23:40:24.948Z,23.57
2019-05-22T23:42:51.727Z,22.53
2019-05-22T23:45:19.781Z,23.77
2019-05-22T23:47:48.128Z,27.93
2019-05-22T23:50:14.803Z,28.80
2019-05-22T23:52:41.352Z,24.37
2019-05-22T23:55:08.943Z,29.90
2019-05-22T23:57:36.235Z,28.00
